Time;durP1;ratioP1;P1;durP2;ratioP2;P2;SDS_P1;SDS_P2;PMS_P1;PMS_P2;Temp;Humidity;BMP_temperature;BMP_pressure;BME280_temperature;BME280_humidity;BME280_pressure;Samples;Min_cycle;Max_cycle;Signal;HPM_P1;HPM_P2
2023/06/06 00:01:25;;;;;;;4.70;4.23;;;19.70;50.30;;;;;;4933190;29;21012;-82
2023/06/06 00:03:52;;;;;;;4.60;4.17;;;19.50;50.70;;;;;;4904726;29;20464;-82
2023/06/06 00:06:21;;;;;;;7.67;4.80;;;19.40;51.00;;;;;;4918390;29;20791;-83
2023/06/06 00:08:48;;;;;;;4.43;3.67;;;19.30;51.30;;;;;;4909122;29;20467;-82
2023/06/06 00:11:15;;;;;;;5.27;4.47;;;19.60;50.80;;;;;;4919732;29;21174;-83
2023/06/06 00:13:43;;;;;;;4.10;3.50;;;20.30;49.50;;;;;;4913678;29;20455;-84
2023/06/06 00:16:12;;;;;;;4.60;3.80;;;20.90;48.30;;;;;;4898990;29;20475;-83
2023/06/06 00:18:40;;;;;;;5.23;4.07;;;21.40;48.10;;;;;;4908707;29;20458;-84
2023/06/06 00:21:08;;;;;;;5.23;4.60;;;21.70;46.60;;;;;;4921312;29;20451;-83
2023/06/06 00:23:36;;;;;;;6.07;4.50;;;21.90;46.10;;;;;;4917087;29;20474;-83
2023/06/06 00:26:03;;;;;;;7.50;4.30;;;22.00;45.40;;;;;;4911209;29;20589;-83
2023/06/06 00:28:29;;;;;;;11.00;4.57;;;21.50;46.00;;;;;;4922512;29;20466;-83
2023/06/06 00:30:57;;;;;;;5.53;4.93;;;20.60;47.60;;;;;;4920893;29;20925;-83
2023/06/06 00:33:25;;;;;;;5.07;4.57;;;20.50;48.10;;;;;;4901221;29;20546;-83
2023/06/06 00:35:52;;;;;;;4.97;4.27;;;20.70;47.60;;;;;;4921167;29;20572;-83
2023/06/06 00:38:19;;;;;;;5.23;4.33;;;20.90;47.30;;;;;;4916695;29;20487;-83
2023/06/06 00:40:46;;;;;;;5.40;4.60;;;21.30;46.90;;;;;;4921951;29;20553;-84
2023/06/06 00:43:13;;;;;;;4.70;4.20;;;21.50;46.10;;;;;;4929138;29;20442;-83
2023/06/06 00:45:40;;;;;;;5.20;4.10;;;21.70;45.70;;;;;;4923726;29;20513;-84
2023/06/06 00:48:07;;;;;;;6.43;4.60;;;21.90;45.50;;;;;;4898356;29;20449;-83
2023/06/06 00:50:36;;;;;;;4.63;3.80;;;21.70;45.50;;;;;;4928705;29;20532;-84
2023/06/06 00:53:05;;;;;;;5.17;4.57;;;21.70;45.60;;;;;;4919634;29;20465;-84
2023/06/06 00:55:32;;;;;;;5.13;4.63;;;21.70;45.80;;;;;;4926443;29;20529;-82
2023/06/06 00:58:00;;;;;;;5.47;4.97;;;21.80;45.60;;;;;;4929499;28;20529;-84
2023/06/06 01:00:32;;;;;;;5.13;4.57;;;21.90;45.70;;;;;;4922327;29;20557;-83
2023/06/06 01:03:00;;;;;;;5.00;4.13;;;21.60;45.50;;;;;;4931812;29;20465;-82
2023/06/06 01:05:27;;;;;;;5.77;4.30;;;21.40;46.30;;;;;;4904386;29;20557;-83
2023/06/06 01:07:56;;;;;;;4.90;4.40;;;21.50;46.30;;;;;;4925578;29;21319;-83
2023/06/06 01:10:25;;;;;;;5.60;4.00;;;21.60;46.20;;;;;;4917635;29;20957;-83
2023/06/06 01:12:59;;;;;;;5.37;4.87;;;21.70;45.70;;;;;;4940766;29;20512;-84
2023/06/06 01:15:35;;;;;;;6.30;4.30;;;21.70;45.40;;;;;;4925360;29;20474;-84
2023/06/06 01:18:04;;;;;;;4.30;3.87;;;21.70;45.80;;;;;;4922840;29;20553;-83
2023/06/06 01:20:32;;;;;;;5.73;5.10;;;21.70;45.70;;;;;;4926414;29;21152;-85
2023/06/06 01:23:02;;;;;;;5.33;4.80;;;21.70;45.70;;;;;;4923837;29;20459;-83
2023/06/06 01:25:29;;;;;;;4.73;4.23;;;21.70;45.50;;;;;;4917727;29;20566;-84
2023/06/06 01:27:56;;;;;;;5.50;5.00;;;21.60;46.10;;;;;;4907267;29;20558;-84
2023/06/06 01:30:27;;;;;;;5.80;4.90;;;21.60;46.50;;;;;;4940758;29;20453;-84
2023/06/06 01:33:09;;;;;;;5.37;4.83;;;21.60;46.60;;;;;;4934668;29;20459;-82
2023/06/06 01:35:43;;;;;;;6.07;4.50;;;21.60;46.70;;;;;;4909006;28;20454;-83
2023/06/06 01:38:17;;;;;;;5.47;4.30;;;21.60;46.90;;;;;;4906766;29;20517;-83
2023/06/06 01:40:47;;;;;;;6.27;5.77;;;21.60;47.10;;;;;;4920751;29;20540;-84
2023/06/06 01:43:16;;;;;;;5.33;4.83;;;21.60;46.90;;;;;;4935466;29;20531;-83
2023/06/06 01:45:46;;;;;;;5.37;4.87;;;21.50;47.00;;;;;;4942439;28;20561;-84
2023/06/06 01:48:13;;;;;;;5.87;5.20;;;21.40;47.20;;;;;;4922790;29;20575;-84
2023/06/06 01:50:41;;;;;;;5.20;4.53;;;21.40;47.50;;;;;;4918269;29;20470;-83
2023/06/06 01:53:09;;;;;;;11.17;6.50;;;21.30;47.50;;;;;;4913899;29;20541;-84
2023/06/06 01:55:38;;;;;;;6.40;5.47;;;21.00;48.00;;;;;;4917671;29;20835;-84
2023/06/06 01:58:06;;;;;;;5.50;4.77;;;20.50;49.60;;;;;;4933744;29;20470;-83
2023/06/06 02:00:33;;;;;;;5.73;5.23;;;20.60;48.80;;;;;;4908472;29;20495;-83
2023/06/06 02:03:01;;;;;;;7.60;5.70;;;20.80;48.80;;;;;;4921697;29;20537;-82
2023/06/06 02:05:28;;;;;;;5.50;5.00;;;20.80;48.60;;;;;;4923900;29;21019;-84
2023/06/06 02:07:55;;;;;;;6.03;5.40;;;20.70;48.90;;;;;;4924158;29;20489;-84
2023/06/06 02:10:24;;;;;;;6.60;5.27;;;20.60;49.00;;;;;;4908378;29;21255;-84
2023/06/06 02:12:52;;;;;;;6.30;5.47;;;20.80;48.10;;;;;;4918846;29;20854;-84
2023/06/06 02:15:19;;;;;;;5.47;4.97;;;20.80;48.20;;;;;;4932084;29;20660;-83
2023/06/06 02:17:46;;;;;;;5.63;5.13;;;20.80;48.80;;;;;;4919953;29;20482;-84
2023/06/06 02:20:13;;;;;;;5.97;5.37;;;20.90;49.20;;;;;;4922284;29;20454;-83
2023/06/06 02:22:40;;;;;;;5.50;5.03;;;20.80;48.30;;;;;;4907045;29;20466;-83
2023/06/06 02:25:09;;;;;;;6.33;5.63;;;20.80;48.90;;;;;;4897775;29;20562;-82
2023/06/06 02:27:36;;;;;;;6.43;5.40;;;20.80;48.80;;;;;;4910102;29;20479;-83
2023/06/06 02:30:07;;;;;;;9.60;6.10;;;20.80;48.70;;;;;;4933635;29;20462;-84
2023/06/06 02:32:34;;;;;;;6.40;5.50;;;20.80;48.80;;;;;;4923111;29;20472;-83
2023/06/06 02:35:03;;;;;;;9.23;6.57;;;20.80;48.70;;;;;;4914899;29;20458;-83
2023/06/06 02:37:29;;;;;;;6.90;6.30;;;20.70;50.50;;;;;;4901336;29;21007;-83
2023/06/06 02:39:57;;;;;;;5.93;5.33;;;20.60;51.90;;;;;;4906324;29;20859;-83
2023/06/06 02:42:24;;;;;;;6.73;5.87;;;20.50;52.20;;;;;;4910525;29;21075;-84
2023/06/06 02:44:51;;;;;;;6.93;6.23;;;20.60;50.80;;;;;;4924656;29;20533;-84
2023/06/06 02:47:20;;;;;;;6.73;5.70;;;20.60;50.00;;;;;;4913377;29;20507;-84
2023/06/06 02:49:48;;;;;;;6.97;5.13;;;20.50;49.40;;;;;;4915417;29;21097;-83
2023/06/06 02:52:15;;;;;;;6.13;5.53;;;20.40;48.90;;;;;;4933215;29;20481;-83
2023/06/06 02:54:42;;;;;;;6.07;5.57;;;20.20;49.80;;;;;;4919025;29;20490;-84
2023/06/06 02:57:09;;;;;;;7.50;6.10;;;20.20;49.60;;;;;;4918012;29;21255;-84
2023/06/06 02:59:36;;;;;;;7.30;6.00;;;20.00;50.40;;;;;;4934969;29;20451;-83
2023/06/06 03:02:04;;;;;;;9.00;6.47;;;20.00;50.50;;;;;;4925248;29;20443;-84
2023/06/06 03:04:32;;;;;;;6.80;6.10;;;20.00;50.40;;;;;;4914644;29;20488;-84
2023/06/06 03:07:00;;;;;;;6.57;5.87;;;20.10;50.40;;;;;;4923328;29;20481;-82
2023/06/06 03:09:27;;;;;;;8.10;5.97;;;20.10;50.20;;;;;;4931356;28;21462;-83
2023/06/06 03:11:56;;;;;;;6.33;5.73;;;20.20;50.10;;;;;;4904977;29;20485;-84
2023/06/06 03:14:23;;;;;;;6.10;5.43;;;20.10;50.00;;;;;;4913406;29;20458;-83
2023/06/06 03:16:51;;;;;;;8.07;6.63;;;20.10;50.00;;;;;;4919142;29;20529;-85
2023/06/06 03:19:20;;;;;;;7.77;5.43;;;20.10;49.70;;;;;;4920719;29;20945;-83
2023/06/06 03:21:51;;;;;;;10.33;6.20;;;20.10;49.40;;;;;;4909519;29;20485;-84
2023/06/06 03:24:18;;;;;;;11.03;6.00;;;20.10;49.40;;;;;;4921269;29;20467;-84
2023/06/06 03:26:47;;;;;;;6.97;6.23;;;20.10;49.50;;;;;;4924521;29;21022;-84
2023/06/06 03:29:16;;;;;;;7.63;5.97;;;20.00;49.90;;;;;;4914230;29;20548;-84
2023/06/06 03:31:44;;;;;;;6.57;5.50;;;20.00;50.00;;;;;;4900495;29;20486;-84
2023/06/06 03:34:11;;;;;;;10.83;6.60;;;20.00;50.40;;;;;;4902371;29;20453;-83
2023/06/06 03:36:39;;;;;;;7.10;6.40;;;20.00;50.80;;;;;;4914139;29;21039;-82
2023/06/06 03:39:11;;;;;;;7.17;6.50;;;19.90;51.40;;;;;;4937947;29;20462;-84
2023/06/06 03:41:38;;;;;;;6.27;5.67;;;19.90;51.60;;;;;;4897027;29;20458;-83
2023/06/06 03:44:07;;;;;;;6.53;5.87;;;19.90;51.70;;;;;;4916071;29;20988;-85
2023/06/06 03:46:35;;;;;;;8.07;6.93;;;19.90;51.90;;;;;;4920899;29;20482;-84
2023/06/06 03:49:02;;;;;;;9.03;6.10;;;19.80;52.40;;;;;;4918433;29;20457;-83
2023/06/06 03:51:29;;;;;;;10.20;6.67;;;19.90;52.30;;;;;;4902685;29;20461;-84
2023/06/06 03:53:56;;;;;;;7.67;6.87;;;19.90;52.20;;;;;;4923084;29;20459;-84
2023/06/06 03:56:25;;;;;;;6.50;5.90;;;19.90;52.00;;;;;;4914405;29;20664;-84
2023/06/06 03:58:52;;;;;;;6.17;5.57;;;20.00;51.60;;;;;;4916010;29;21057;-84
2023/06/06 04:01:20;;;;;;;8.40;6.20;;;20.00;51.70;;;;;;4907387;29;20455;-83
2023/06/06 04:03:47;;;;;;;8.00;7.03;;;20.00;51.50;;;;;;4928133;29;20473;-83
2023/06/06 04:06:15;;;;;;;11.17;6.07;;;20.00;51.50;;;;;;4904824;28;20487;-84
2023/06/06 04:08:42;;;;;;;6.47;5.87;;;19.90;51.20;;;;;;4907090;29;20469;-83
2023/06/06 04:11:09;;;;;;;9.87;6.47;;;19.90;51.40;;;;;;4901637;29;20458;-84
2023/06/06 04:13:37;;;;;;;7.03;6.33;;;19.90;51.50;;;;;;4918643;29;20982;-83
2023/06/06 04:16:05;;;;;;;8.37;6.90;;;19.90;51.40;;;;;;4914985;29;20462;-82
2023/06/06 04:18:33;;;;;;;7.50;6.77;;;19.90;51.30;;;;;;4913799;29;21508;-84
2023/06/06 04:21:01;;;;;;;7.20;6.47;;;19.90;51.60;;;;;;4924096;29;20462;-84
2023/06/06 04:23:27;;;;;;;10.27;7.13;;;19.90;51.70;;;;;;4933241;28;20561;-83
2023/06/06 04:25:56;;;;;;;9.30;6.57;;;19.90;51.70;;;;;;4926051;29;20486;-83
2023/06/06 04:28:23;;;;;;;7.13;6.43;;;19.90;51.60;;;;;;4914431;29;20469;-82
2023/06/06 04:30:52;;;;;;;7.50;6.70;;;19.90;51.80;;;;;;4934118;29;20478;-84
2023/06/06 04:33:20;;;;;;;9.90;6.80;;;19.90;51.90;;;;;;4918795;29;20459;-82
2023/06/06 04:35:49;;;;;;;8.33;6.40;;;19.90;51.80;;;;;;4928938;28;20974;-82
2023/06/06 04:38:20;;;;;;;6.80;6.20;;;19.90;51.60;;;;;;4900914;29;20451;-84
2023/06/06 04:40:50;;;;;;;10.00;7.93;;;20.00;52.00;;;;;;4924713;29;20451;-83
2023/06/06 04:43:23;;;;;;;9.50;7.00;;;20.00;52.10;;;;;;4898507;29;21045;-83
2023/06/06 04:45:53;;;;;;;7.53;6.60;;;20.00;52.00;;;;;;4918950;29;20984;-83
2023/06/06 04:48:20;;;;;;;7.00;6.30;;;19.90;52.00;;;;;;4915015;29;20455;-81
2023/06/06 04:50:49;;;;;;;8.33;6.60;;;19.90;52.40;;;;;;4919305;29;20447;-82
2023/06/06 04:53:16;;;;;;;10.03;6.47;;;19.90;52.10;;;;;;4920496;29;20458;-82
2023/06/06 04:55:43;;;;;;;7.53;6.77;;;20.00;52.40;;;;;;4901084;29;20450;-83
2023/06/06 04:58:14;;;;;;;10.80;6.80;;;20.00;52.20;;;;;;4922578;29;20457;-83
2023/06/06 05:00:45;;;;;;;8.13;7.33;;;20.00;52.50;;;;;;4906359;29;20466;-82
2023/06/06 05:03:18;;;;;;;9.47;7.27;;;20.00;52.70;;;;;;4907381;29;21199;-82
2023/06/06 05:05:49;;;;;;;9.00;7.30;;;20.00;52.60;;;;;;4918703;28;20574;-83
2023/06/06 05:08:16;;;;;;;9.23;7.93;;;20.00;52.50;;;;;;4917103;29;20550;-83
2023/06/06 05:10:43;;;;;;;10.43;7.20;;;19.90;52.40;;;;;;4919205;29;20517;-84
2023/06/06 05:13:10;;;;;;;10.60;6.63;;;19.80;52.60;;;;;;4915435;29;21216;-83
2023/06/06 05:15:37;;;;;;;8.47;7.20;;;19.80;52.60;;;;;;4934650;29;21123;-84
2023/06/06 05:18:04;;;;;;;9.20;7.47;;;20.00;53.40;;;;;;4939051;29;21237;-84
2023/06/06 05:20:33;;;;;;;9.60;7.07;;;20.10;52.90;;;;;;4924084;29;20465;-84
2023/06/06 05:23:00;;;;;;;10.63;7.50;;;19.90;52.50;;;;;;4909457;29;20538;-84
2023/06/06 05:25:27;;;;;;;8.93;7.03;;;19.90;53.00;;;;;;4921019;29;21045;-84
2023/06/06 05:27:55;;;;;;;9.00;7.77;;;19.90;52.70;;;;;;4912697;29;20489;-84
2023/06/06 05:30:22;;;;;;;9.80;7.83;;;19.90;52.70;;;;;;4919123;29;20469;-83
2023/06/06 05:32:49;;;;;;;6.83;6.20;;;19.90;53.00;;;;;;4922291;29;20451;-85
2023/06/06 05:35:16;;;;;;;9.57;7.40;;;19.70;53.50;;;;;;4904523;29;20455;-84
2023/06/06 05:37:44;;;;;;;10.73;7.43;;;19.70;53.60;;;;;;4903720;29;20490;-84
2023/06/06 05:40:11;;;;;;;11.17;7.93;;;19.70;53.80;;;;;;4903733;29;20459;-83
2023/06/06 05:42:39;;;;;;;8.20;7.10;;;19.90;53.80;;;;;;4922907;29;20446;-83
2023/06/06 05:45:07;;;;;;;12.23;8.63;;;20.10;53.90;;;;;;4903430;29;20481;-82
2023/06/06 05:47:34;;;;;;;7.60;6.33;;;20.30;53.00;;;;;;4933458;28;20478;-84
2023/06/06 05:50:01;;;;;;;7.23;6.53;;;20.40;52.80;;;;;;4917557;29;21003;-84
2023/06/06 05:52:28;;;;;;;9.03;7.33;;;20.60;52.40;;;;;;4920497;29;20854;-85
2023/06/06 05:55:01;;;;;;;9.03;6.80;;;20.60;52.00;;;;;;4939261;29;20532;-84
2023/06/06 05:57:28;;;;;;;8.13;7.03;;;20.80;52.00;;;;;;4929525;29;20609;-83
2023/06/06 06:00:00;;;;;;;8.53;6.13;;;21.00;51.80;;;;;;4933471;28;20447;-85
2023/06/06 06:02:28;;;;;;;10.00;7.33;;;21.10;51.00;;;;;;4923272;29;20463;-84
2023/06/06 06:04:56;;;;;;;10.93;7.20;;;20.90;51.40;;;;;;4929870;28;20561;-84
2023/06/06 06:07:24;;;;;;;16.60;7.43;;;20.90;51.10;;;;;;4915876;29;20478;-84
2023/06/06 06:09:51;;;;;;;8.30;6.67;;;20.80;51.60;;;;;;4931087;29;20454;-84
2023/06/06 06:12:19;;;;;;;15.50;7.53;;;21.10;52.60;;;;;;4914549;29;20458;-84
2023/06/06 06:14:46;;;;;;;9.63;7.30;;;21.20;51.20;;;;;;4929833;29;20531;-84
2023/06/06 06:17:13;;;;;;;12.10;7.03;;;21.40;50.90;;;;;;4930989;29;20493;-84
2023/06/06 06:19:40;;;;;;;15.33;8.37;;;21.30;50.20;;;;;;4929281;29;20447;-83
2023/06/06 06:22:07;;;;;;;14.37;7.43;;;21.50;50.70;;;;;;4929411;29;20458;-83
2023/06/06 06:24:34;;;;;;;15.83;7.07;;;21.80;50.50;;;;;;4913289;29;20443;-83
2023/06/06 06:27:01;;;;;;;7.73;6.57;;;22.00;50.00;;;;;;4904360;29;20516;-84
2023/06/06 06:29:29;;;;;;;13.07;7.63;;;22.10;49.70;;;;;;4912323;29;20470;-83
2023/06/06 06:31:56;;;;;;;6.97;6.30;;;22.20;49.50;;;;;;4904011;29;20454;-84
2023/06/06 06:34:23;;;;;;;7.80;6.53;;;22.30;49.10;;;;;;4902759;29;20459;-87
2023/06/06 06:36:50;;;;;;;12.00;6.97;;;21.90;49.30;;;;;;4919418;29;21372;-83
2023/06/06 06:39:18;;;;;;;11.53;6.43;;;21.70;50.40;;;;;;4934058;29;20569;-83
2023/06/06 06:41:46;;;;;;;15.33;7.20;;;21.70;50.40;;;;;;4920274;29;20477;-85
2023/06/06 06:44:13;;;;;;;10.33;6.90;;;21.90;50.40;;;;;;4914688;28;20459;-83
2023/06/06 06:46:41;;;;;;;8.73;7.07;;;22.10;49.80;;;;;;4929809;28;21030;-84
2023/06/06 06:49:14;;;;;;;9.57;6.00;;;22.30;49.50;;;;;;4922028;29;20442;-84
2023/06/06 06:51:41;;;;;;;8.60;6.73;;;22.30;49.60;;;;;;4930926;29;20486;-83
2023/06/06 06:54:11;;;;;;;11.10;6.30;;;22.20;49.10;;;;;;4931673;28;20453;-83
2023/06/06 06:56:38;;;;;;;10.53;6.83;;;22.30;49.80;;;;;;4903400;29;20454;-84
2023/06/06 06:59:05;;;;;;;15.60;6.90;;;22.30;49.60;;;;;;4920915;29;20442;-84
2023/06/06 07:01:32;;;;;;;8.17;5.97;;;22.50;49.70;;;;;;4914700;29;20449;-85
2023/06/06 07:04:00;;;;;;;12.03;7.17;;;22.70;48.90;;;;;;4917834;29;22467;-84
2023/06/06 07:06:32;;;;;;;8.57;5.93;;;22.80;48.60;;;;;;4918802;29;20561;-84
2023/06/06 07:09:00;;;;;;;8.30;6.27;;;23.00;49.10;;;;;;4921286;29;20463;-84
2023/06/06 07:11:27;;;;;;;10.83;6.60;;;23.10;47.90;;;;;;4917640;29;21264;-84
2023/06/06 07:13:55;;;;;;;8.67;6.20;;;23.10;47.80;;;;;;4921696;29;20453;-84
2023/06/06 07:16:23;;;;;;;9.90;6.23;;;23.30;48.00;;;;;;4916116;29;20482;-85
2023/06/06 07:18:51;;;;;;;9.00;6.53;;;23.60;48.40;;;;;;4939786;29;20470;-85
2023/06/06 07:21:21;;;;;;;6.97;6.10;;;23.70;47.60;;;;;;4903807;29;20918;-85
2023/06/06 07:23:48;;;;;;;6.43;5.83;;;23.70;47.20;;;;;;4934489;29;20453;-85
2023/06/06 07:26:16;;;;;;;9.47;6.00;;;24.00;47.20;;;;;;4929301;28;20977;-84
2023/06/06 07:28:43;;;;;;;8.30;6.43;;;24.20;46.30;;;;;;4906310;29;20454;-84
2023/06/06 07:31:10;;;;;;;6.70;6.00;;;24.40;46.10;;;;;;4920896;29;20455;-84
2023/06/06 07:33:37;;;;;;;150.93;25.93;;;24.40;45.50;;;;;;4929139;28;20845;-85
2023/06/06 07:36:05;;;;;;;6.40;5.80;;;24.30;46.30;;;;;;4899401;29;20871;-85
2023/06/06 07:38:33;;;;;;;13.53;6.10;;;24.50;45.50;;;;;;4913424;29;20969;-85
2023/06/06 07:41:00;;;;;;;11.97;5.60;;;24.50;45.50;;;;;;4922413;29;20450;-84
2023/06/06 07:43:27;;;;;;;5.70;5.20;;;24.60;46.10;;;;;;4908636;29;20450;-84
2023/06/06 07:45:54;;;;;;;6.70;5.20;;;24.70;45.80;;;;;;4945160;28;20550;-85
2023/06/06 07:48:21;;;;;;;6.57;5.97;;;25.00;45.50;;;;;;4930615;28;20542;-84
2023/06/06 07:50:48;;;;;;;7.47;6.23;;;25.10;44.40;;;;;;4929714;29;20463;-85
2023/06/06 07:53:15;;;;;;;10.93;5.57;;;24.80;44.50;;;;;;4913514;29;21160;-84
2023/06/06 07:55:43;;;;;;;6.17;5.57;;;24.70;45.40;;;;;;4903430;28;20471;-84
2023/06/06 07:58:11;;;;;;;11.37;5.30;;;24.90;45.60;;;;;;4924667;29;20454;-85
2023/06/06 08:00:38;;;;;;;6.57;5.30;;;25.10;44.60;;;;;;4932837;29;20854;-84
2023/06/06 08:03:06;;;;;;;7.83;5.67;;;25.10;44.50;;;;;;4933317;29;20455;-84
2023/06/06 08:05:36;;;;;;;12.33;6.47;;;25.20;44.80;;;;;;4921821;29;20481;-84
2023/06/06 08:08:05;;;;;;;7.47;5.57;;;25.30;44.40;;;;;;4925525;29;20938;-85
2023/06/06 08:10:33;;;;;;;8.03;5.37;;;25.60;44.50;;;;;;4919925;29;20541;-82
2023/06/06 08:13:01;;;;;;;5.23;4.83;;;25.80;43.70;;;;;;4923723;29;20455;-84
2023/06/06 08:15:29;;;;;;;7.50;5.20;;;25.90;44.00;;;;;;4933927;29;20455;-83
2023/06/06 08:17:56;;;;;;;11.23;5.70;;;26.10;43.30;;;;;;4905348;29;20459;-84
2023/06/06 08:20:23;;;;;;;5.90;5.10;;;26.20;43.20;;;;;;4921413;29;20808;-86
2023/06/06 08:22:50;;;;;;;7.20;5.60;;;26.30;42.50;;;;;;4921565;29;21153;-84
2023/06/06 08:25:17;;;;;;;7.87;4.53;;;26.30;41.70;;;;;;4905753;29;20446;-85
2023/06/06 08:27:45;;;;;;;5.97;5.20;;;26.20;42.50;;;;;;4938839;28;20494;-83
2023/06/06 08:30:15;;;;;;;6.70;5.20;;;26.30;41.50;;;;;;4921303;29;20824;-84
2023/06/06 08:32:41;;;;;;;4.70;4.33;;;26.40;40.90;;;;;;4917934;29;21071;-85
2023/06/06 08:35:09;;;;;;;4.67;4.27;;;26.20;40.80;;;;;;4904577;29;20462;-84
2023/06/06 08:37:36;;;;;;;6.40;5.77;;;26.00;41.60;;;;;;4914894;29;20458;-84
2023/06/06 08:40:04;;;;;;;7.40;5.10;;;26.40;41.00;;;;;;4935743;29;20455;-84
2023/06/06 08:42:33;;;;;;;6.20;5.13;;;26.30;39.80;;;;;;4919310;29;20454;-84
2023/06/06 08:45:03;;;;;;;4.77;4.33;;;26.50;40.30;;;;;;4910052;29;20438;-84
2023/06/06 08:47:33;;;;;;;4.73;4.33;;;26.40;38.60;;;;;;4918557;29;20470;-84
2023/06/06 08:50:01;;;;;;;5.00;3.90;;;26.60;38.00;;;;;;4934219;29;20827;-84
2023/06/06 08:52:29;;;;;;;6.27;4.50;;;26.90;36.90;;;;;;4922610;29;20542;-85
2023/06/06 08:54:59;;;;;;;4.50;4.10;;;27.00;36.70;;;;;;4921446;29;20469;-85
2023/06/06 08:57:27;;;;;;;4.30;3.67;;;26.90;35.80;;;;;;4908828;29;20486;-84
2023/06/06 08:59:54;;;;;;;4.47;3.87;;;27.00;36.20;;;;;;4933461;29;20463;-84
2023/06/06 09:02:22;;;;;;;4.13;3.73;;;26.90;35.50;;;;;;4925243;29;20546;-84
2023/06/06 09:04:52;;;;;;;5.40;3.60;;;26.90;35.60;;;;;;4916743;29;20455;-84
2023/06/06 09:07:20;;;;;;;7.90;4.10;;;26.90;35.10;;;;;;4933568;29;20558;-84
2023/06/06 09:09:49;;;;;;;5.17;3.93;;;27.10;36.10;;;;;;4914835;29;20465;-83
2023/06/06 09:12:16;;;;;;;5.40;4.27;;;27.30;35.20;;;;;;4924416;29;20463;-82
2023/06/06 09:14:43;;;;;;;4.30;4.00;;;27.60;34.70;;;;;;4935266;29;20462;-85
2023/06/06 09:17:16;;;;;;;4.90;3.70;;;27.90;35.00;;;;;;4924798;29;20470;-84
2023/06/06 09:19:45;;;;;;;3.53;3.23;;;28.00;33.50;;;;;;4932520;28;20482;-83
2023/06/06 09:22:13;;;;;;;5.20;3.60;;;28.20;35.30;;;;;;4921101;29;20966;-84
2023/06/06 09:24:43;;;;;;;4.03;3.63;;;28.40;34.50;;;;;;4930513;29;20450;-84
2023/06/06 09:27:27;;;;;;;6.23;3.10;;;28.60;31.70;;;;;;4924197;29;20483;-85
2023/06/06 09:29:54;;;;;;;3.20;2.90;;;28.10;31.10;;;;;;4924518;29;20463;-84
2023/06/06 09:32:27;;;;;;;5.80;3.50;;;28.00;32.40;;;;;;4902873;29;20457;-84
2023/06/06 09:34:54;;;;;;;4.03;3.40;;;28.10;31.10;;;;;;4905506;29;20609;-84
2023/06/06 09:37:25;;;;;;;4.93;3.87;;;28.30;31.70;;;;;;4907236;29;20582;-84
2023/06/06 09:40:11;;;;;;;4.30;2.87;;;28.30;31.50;;;;;;4910258;29;20959;-84
2023/06/06 09:42:40;;;;;;;3.33;2.90;;;28.40;31.10;;;;;;4924424;29;20469;-84
2023/06/06 09:45:14;;;;;;;3.00;2.80;;;28.60;31.00;;;;;;4935365;29;20485;-84
2023/06/06 09:47:42;;;;;;;3.10;2.70;;;28.60;30.00;;;;;;4923345;29;20473;-83
2023/06/06 09:50:10;;;;;;;25.47;3.87;;;28.50;30.90;;;;;;4935576;29;20506;-84
2023/06/06 09:52:39;;;;;;;4.60;3.20;;;28.70;30.10;;;;;;4917296;29;20843;-85
2023/06/06 09:55:07;;;;;;;6.17;3.00;;;28.70;30.00;;;;;;4934410;29;20455;-84
2023/06/06 09:57:36;;;;;;;4.33;3.10;;;28.60;29.90;;;;;;4921259;29;20521;-85
2023/06/06 10:00:07;;;;;;;5.50;3.40;;;28.70;30.10;;;;;;4933858;29;20532;-83
2023/06/06 10:02:42;;;;;;;5.20;3.80;;;28.70;30.10;;;;;;4932396;29;21301;-83
2023/06/06 10:05:12;;;;;;;5.40;3.20;;;29.10;30.90;;;;;;4919718;29;20457;-84
2023/06/06 10:07:44;;;;;;;4.03;3.07;;;29.30;30.20;;;;;;4917272;29;20510;-84
2023/06/06 10:10:13;;;;;;;4.97;3.40;;;29.80;30.40;;;;;;4910094;29;21011;-84
2023/06/06 10:12:40;;;;;;;4.50;4.10;;;29.50;29.10;;;;;;4924202;29;20490;-86
2023/06/06 10:15:09;;;;;;;4.00;3.40;;;29.80;31.00;;;;;;4933776;29;20863;-84
2023/06/06 10:17:37;;;;;;;4.10;3.37;;;29.90;28.90;;;;;;4923115;29;20467;-85
2023/06/06 10:20:07;;;;;;;3.50;3.20;;;29.80;29.50;;;;;;4908859;29;20458;-84
2023/06/06 10:22:35;;;;;;;7.40;3.70;;;29.80;29.80;;;;;;4917412;29;20455;-84
2023/06/06 10:25:05;;;;;;;4.87;3.80;;;30.10;28.90;;;;;;4924110;29;20479;-84
2023/06/06 10:27:47;;;;;;;3.83;3.47;;;29.90;28.40;;;;;;4928921;29;21458;-84
2023/06/06 10:30:25;;;;;;;4.03;3.63;;;30.20;28.30;;;;;;4916634;29;20451;-84
2023/06/06 10:33:04;;;;;;;3.63;3.30;;;30.20;28.60;;;;;;4938638;29;20473;-85
2023/06/06 10:35:33;;;;;;;4.63;3.47;;;30.40;28.60;;;;;;4922475;29;20461;-84
2023/06/06 10:38:04;;;;;;;4.53;3.17;;;30.10;28.50;;;;;;4929821;29;20570;-85
2023/06/06 10:40:49;;;;;;;3.00;2.80;;;29.90;29.20;;;;;;4916366;29;21056;-84
2023/06/06 10:43:20;;;;;;;8.50;3.00;;;29.90;28.80;;;;;;4924737;29;21002;-84
2023/06/06 10:45:50;;;;;;;3.20;2.90;;;29.70;29.60;;;;;;4923427;28;20553;-83
2023/06/06 10:48:29;;;;;;;3.33;3.00;;;30.10;29.30;;;;;;4921391;29;20482;-83
2023/06/06 10:50:57;;;;;;;3.57;3.27;;;30.20;29.00;;;;;;4932401;29;20446;-85
2023/06/06 10:53:23;;;;;;;2.90;2.70;;;30.40;28.20;;;;;;4914973;29;20474;-85
2023/06/06 10:55:52;;;;;;;3.30;2.77;;;30.50;27.50;;;;;;4907567;28;20458;-85
2023/06/06 10:58:21;;;;;;;3.70;3.40;;;30.60;27.90;;;;;;4900007;29;21334;-86
2023/06/06 11:00:50;;;;;;;4.53;3.00;;;30.30;27.10;;;;;;4923238;29;20952;-83
2023/06/06 11:03:20;;;;;;;3.13;2.77;;;29.90;28.60;;;;;;4923448;29;20458;-84
2023/06/06 11:06:09;;;;;;;3.30;3.00;;;30.40;27.80;;;;;;4946273;28;20537;-84
2023/06/06 11:08:37;;;;;;;3.30;3.00;;;30.50;27.60;;;;;;4946785;28;21104;-84
2023/06/06 11:11:25;;;;;;;4.50;3.20;;;30.60;28.20;;;;;;4916292;29;20450;-84
2023/06/06 11:13:57;;;;;;;10.37;3.37;;;30.70;27.50;;;;;;4918274;29;20568;-85
2023/06/06 11:16:52;;;;;;;3.17;2.87;;;30.80;27.00;;;;;;4906070;29;20609;-84
2023/06/06 11:19:21;;;;;;;2.80;2.60;;;31.00;27.20;;;;;;4903972;29;20450;-84
2023/06/06 11:21:50;;;;;;;3.37;3.07;;;31.10;27.10;;;;;;4919082;29;20558;-85
2023/06/06 11:24:19;;;;;;;3.37;3.07;;;31.20;27.20;;;;;;4906333;29;20457;-84
2023/06/06 11:26:51;;;;;;;4.37;3.17;;;31.20;27.80;;;;;;4915214;29;20500;-85
2023/06/06 11:29:20;;;;;;;2.70;2.50;;;31.20;26.70;;;;;;4903216;29;20457;-85
2023/06/06 11:31:48;;;;;;;2.80;2.60;;;31.10;27.10;;;;;;4918767;29;21145;-84
2023/06/06 11:34:16;;;;;;;3.60;3.30;;;31.30;26.50;;;;;;4905497;29;20466;-85
2023/06/06 11:36:45;;;;;;;3.80;3.10;;;31.70;26.50;;;;;;4931539;28;20477;-84
2023/06/06 11:39:13;;;;;;;2.63;2.43;;;31.40;26.00;;;;;;4918188;29;20465;-84
2023/06/06 11:41:41;;;;;;;3.00;2.70;;;31.20;26.10;;;;;;4927010;29;20458;-85
2023/06/06 11:44:10;;;;;;;3.30;2.57;;;31.10;27.20;;;;;;4906801;29;21080;-83
2023/06/06 11:46:45;;;;;;;2.40;2.20;;;31.00;26.10;;;;;;4906144;29;20473;-85
2023/06/06 11:49:12;;;;;;;3.00;2.80;;;30.60;26.80;;;;;;4918110;29;20435;-84
2023/06/06 11:51:39;;;;;;;3.40;2.57;;;30.00;26.40;;;;;;4899373;29;20947;-84
2023/06/06 11:54:17;;;;;;;4.37;2.80;;;30.20;26.60;;;;;;4907256;29;20631;-84
2023/06/06 11:56:44;;;;;;;3.07;2.70;;;30.60;27.10;;;;;;4920863;29;20466;-83
2023/06/06 11:59:14;;;;;;;2.70;2.50;;;31.00;27.00;;;;;;4897906;29;20477;-83
2023/06/06 12:01:49;;;;;;;3.30;3.00;;;30.80;26.20;;;;;;4930406;29;20823;-84
2023/06/06 12:04:18;;;;;;;2.90;2.50;;;30.80;27.40;;;;;;4895954;29;20537;-85
2023/06/06 12:06:49;;;;;;;4.43;2.97;;;30.80;26.00;;;;;;4920086;29;20479;-84
2023/06/06 12:09:19;;;;;;;3.80;3.00;;;30.70;25.30;;;;;;4933537;29;20533;-85
2023/06/06 12:11:54;;;;;;;6.07;2.90;;;30.30;25.70;;;;;;4915232;29;20459;-84
2023/06/06 12:14:23;;;;;;;2.83;2.63;;;30.10;26.10;;;;;;4914440;29;20521;-83
2023/06/06 12:16:51;;;;;;;3.60;3.30;;;29.70;25.70;;;;;;4929297;29;20474;-84
2023/06/06 12:19:19;;;;;;;3.00;2.67;;;29.90;25.90;;;;;;4937303;29;20837;-86
2023/06/06 12:21:48;;;;;;;4.70;2.50;;;30.30;25.90;;;;;;4930412;29;20463;-85
2023/06/06 12:24:20;;;;;;;3.57;2.40;;;30.50;25.60;;;;;;4931867;28;20458;-84
2023/06/06 12:26:53;;;;;;;4.23;2.33;;;30.80;25.40;;;;;;4917750;29;20494;-85
2023/06/06 12:29:20;;;;;;;3.53;3.23;;;31.10;25.50;;;;;;4932625;29;20595;-84
2023/06/06 12:31:49;;;;;;;3.40;2.60;;;30.80;24.80;;;;;;4919828;29;20451;-84
2023/06/06 12:34:17;;;;;;;2.97;2.50;;;30.70;25.30;;;;;;4906568;29;20454;-85
2023/06/06 12:36:43;;;;;;;2.80;2.60;;;30.20;25.30;;;;;;4905366;29;20470;-84
2023/06/06 12:39:13;;;;;;;3.70;2.70;;;30.20;25.90;;;;;;4929674;29;20465;-85
2023/06/06 12:41:42;;;;;;;4.23;2.30;;;30.50;26.40;;;;;;4918609;29;20529;-85
2023/06/06 12:44:11;;;;;;;4.10;2.33;;;30.60;25.10;;;;;;4903376;29;20443;-84
2023/06/06 12:46:42;;;;;;;6.13;2.70;;;30.80;25.50;;;;;;4934916;28;20467;-85
2023/06/06 12:49:11;;;;;;;3.20;2.37;;;31.10;25.30;;;;;;4918740;29;20486;-85
2023/06/06 12:51:39;;;;;;;3.20;2.53;;;31.10;24.90;;;;;;4925816;29;20462;-84
2023/06/06 12:54:06;;;;;;;2.83;2.40;;;31.10;24.90;;;;;;4934134;29;20502;-84